Time;durP1;ratioP1;P1;durP2;ratioP2;P2;SDS_P1;SDS_P2;PMS_P1;PMS_P2;Temp;Humidity;BMP_temperature;BMP_pressure;BME280_temperature;BME280_humidity;BME280_pressure;Samples;Min_cycle;Max_cycle;Signal;HPM_P1;HPM_P2
2022/10/09 00:01:38;;;;;;;21.40;16.40;;;;;;;8.04;99.15;97744.64;108098;1263;69899;-78
2022/10/09 00:04:07;;;;;;;24.20;18.70;;;;;;;8.03;99.99;97742.45;107985;1266;68496;-79
2022/10/09 00:06:36;;;;;;;22.90;17.20;;;;;;;8.01;100.00;97746.04;107930;1266;58899;-79
2022/10/09 00:09:05;;;;;;;22.60;16.70;;;;;;;7.98;100.00;97744.50;107831;1267;58917;-79
2022/10/09 00:11:34;;;;;;;20.70;16.40;;;;;;;7.95;100.00;97745.52;108480;1263;70606;-79
2022/10/09 00:14:04;;;;;;;20.40;17.00;;;;;;;7.92;100.00;97743.25;108086;1266;68414;-78
2022/10/09 00:16:33;;;;;;;19.40;15.00;;;;;;;7.88;100.00;97741.56;108162;1266;68335;-78
2022/10/09 00:19:03;;;;;;;17.20;12.70;;;;;;;7.85;99.64;97740.89;107983;1262;58880;-76
2022/10/09 00:21:33;;;;;;;18.30;13.50;;;;;;;7.79;97.59;97740.14;107820;1265;59379;-78
2022/10/09 00:24:04;;;;;;;18.60;13.90;;;;;;;7.74;95.45;97738.00;107976;1257;70520;-78
2022/10/09 00:26:33;;;;;;;;;;;;;;;7.71;96.65;97735.59;107972;1264;69220;-78
2022/10/09 00:29:03;;;;;;;15.20;10.80;;;;;;;7.66;95.21;97732.37;107923;1266;69552;-78
2022/10/09 00:31:32;;;;;;;;;;;;;;;7.65;93.47;97735.73;107957;1266;58903;-78
2022/10/09 00:34:03;;;;;;;17.50;12.90;;;;;;;7.67;99.86;97737.20;108118;1262;58886;-78
2022/10/09 00:36:32;;;;;;;15.10;11.50;;;;;;;7.64;100.00;97735.09;108026;1265;70402;-78
2022/10/09 00:39:02;;;;;;;15.60;13.00;;;;;;;7.59;96.81;97733.66;108116;1265;69199;-79
2022/10/09 00:41:34;;;;;;;16.00;11.60;;;;;;;7.53;95.15;97730.33;107968;1262;69573;-79
2022/10/09 00:44:47;;;;;;;20.40;16.10;;;;;;;7.47;97.62;97729.83;107955;1267;58970;-78
2022/10/09 00:47:25;;;;;;;22.10;15.30;;;;;;;7.39;98.71;97725.73;107898;1263;58879;-78
2022/10/09 00:50:05;;;;;;;19.10;14.80;;;;;;;7.34;97.02;97723.09;107948;1262;70598;-80
2022/10/09 00:52:36;;;;;;;17.20;11.60;;;;;;;7.27;94.86;97722.23;107810;1264;69077;-77
2022/10/09 00:55:08;;;;;;;17.80;12.30;;;;;;;7.21;95.96;97722.40;107904;1263;68464;-79
2022/10/09 00:57:39;;;;;;;19.40;13.50;;;;;;;7.12;98.03;97720.97;107920;1263;58982;-78
2022/10/09 01:00:11;;;;;;;18.30;14.20;;;;;;;7.07;99.07;97719.50;107957;1262;59006;-78
2022/10/09 01:02:41;;;;;;;16.80;13.60;;;;;;;7.04;100.00;97721.20;107842;1266;70409;-79
2022/10/09 01:05:12;;;;;;;17.80;14.30;;;;;;;7.03;100.00;97715.18;107893;1263;68406;-78
2022/10/09 01:07:47;;;;;;;18.10;13.50;;;;;;;7.04;100.00;97714.48;107821;1266;68307;-78
2022/10/09 01:10:38;;;;;;;15.40;11.70;;;;;;;7.04;100.00;97714.29;108138;1263;58920;-79
2022/10/09 01:13:26;;;;;;;22.80;16.60;;;;;;;7.03;100.00;97715.94;107945;1263;58920;-79
2022/10/09 01:16:03;;;;;;;29.20;16.60;;;;;;;6.99;100.00;97716.14;107814;1262;70606;-81
2022/10/09 01:18:52;;;;;;;28.00;18.80;;;;;;;6.96;100.00;97713.52;108488;1263;69200;-80
2022/10/09 01:21:57;;;;;;;39.40;20.40;;;;;;;6.95;100.00;97713.04;107880;1262;68458;-79
2022/10/09 01:24:33;;;;;;;25.20;14.30;;;;;;;6.94;100.00;97716.55;108144;1263;58998;-75
2022/10/09 01:27:13;;;;;;;32.80;17.50;;;;;;;6.96;100.00;97723.55;107832;1267;58896;-79
2022/10/09 01:29:48;;;;;;;36.70;17.90;;;;;;;6.99;100.00;97722.58;107809;1263;70577;-79
2022/10/09 01:32:26;;;;;;;29.40;18.10;;;;;;;7.04;100.00;97727.63;107940;1263;69168;-79
2022/10/09 01:34:58;;;;;;;28.80;18.10;;;;;;;7.09;100.00;97729.42;107862;1262;68571;-78
2022/10/09 01:37:31;;;;;;;23.70;14.10;;;;;;;7.12;100.00;97728.59;107783;1265;58962;-79
2022/10/09 01:40:03;;;;;;;18.70;12.30;;;;;;;7.11;100.00;97727.23;107846;1267;58913;-79
2022/10/09 01:42:34;;;;;;;25.10;18.00;;;;;;;7.10;100.00;97726.39;107837;1263;69919;-79
2022/10/09 01:45:05;;;;;;;27.30;17.80;;;;;;;7.09;100.00;97725.45;108013;1266;68540;-79
2022/10/09 01:47:36;;;;;;;23.80;15.20;;;;;;;7.07;100.00;97723.63;108051;1263;69243;-79
2022/10/09 01:50:26;;;;;;;22.10;15.30;;;;;;;7.06;100.00;97725.63;107814;1267;58954;-79
2022/10/09 01:53:05;;;;;;;20.40;14.20;;;;;;;7.04;100.00;97726.08;107937;1263;58855;-79
2022/10/09 01:55:43;;;;;;;18.40;12.50;;;;;;;7.01;100.00;97727.75;107830;1266;70507;-79
2022/10/09 01:58:33;;;;;;;17.20;11.30;;;;;;;6.99;100.00;97723.91;107901;1265;69285;-79
2022/10/09 02:01:08;;;;;;;19.50;15.60;;;;;;;6.98;100.00;97724.46;107876;1266;69225;-79
2022/10/09 02:03:41;;;;;;;22.70;14.90;;;;;;;6.94;100.00;97724.35;107995;1265;58884;-79
2022/10/09 02:06:13;;;;;;;19.00;13.00;;;;;;;6.89;100.00;97726.88;107942;1267;58900;-79
2022/10/09 02:08:46;;;;;;;24.20;16.40;;;;;;;6.85;100.00;97722.36;107747;1265;70977;-79
2022/10/09 02:11:16;;;;;;;26.90;17.20;;;;;;;6.81;100.00;97721.04;107937;1267;68772;-79
2022/10/09 02:13:51;;;;;;;23.30;15.90;;;;;;;6.79;100.00;97721.48;107778;1267;69885;-79
2022/10/09 02:16:27;;;;;;;23.70;15.10;;;;;;;6.77;100.00;97722.33;107977;1267;58915;-80
2022/10/09 02:19:26;;;;;;;22.00;15.20;;;;;;;6.75;100.00;97720.52;107942;1266;58894;-80
2022/10/09 02:22:05;;;;;;;26.90;17.20;;;;;;;6.74;100.00;97722.98;107883;1263;69752;-79
2022/10/09 02:24:37;;;;;;;18.50;13.60;;;;;;;6.72;100.00;97722.20;108570;1266;69049;-80
2022/10/09 02:27:09;;;;;;;20.40;14.20;;;;;;;6.70;100.00;97727.18;108175;1266;68362;-80
2022/10/09 02:29:44;;;;;;;23.30;16.30;;;;;;;6.69;100.00;97730.86;108069;1260;58959;-79
2022/10/09 02:32:14;;;;;;;22.30;15.40;;;;;;;6.67;100.00;97731.86;107979;1263;58887;-80
2022/10/09 02:34:43;;;;;;;24.80;16.00;;;;;;;6.63;100.00;97731.85;107885;1267;70553;-80
2022/10/09 02:37:13;;;;;;;15.00;11.80;;;;;;;6.61;100.00;97737.01;107871;1257;68078;-79
2022/10/09 02:39:44;;;;;;;20.00;14.30;;;;;;;6.59;100.00;97733.66;107836;1265;69179;-79
2022/10/09 02:42:15;;;;;;;19.00;15.70;;;;;;;6.57;100.00;97734.11;107912;1266;58964;-79
2022/10/09 02:44:44;;;;;;;21.50;14.40;;;;;;;6.52;100.00;97740.23;108052;1265;58924;-78
2022/10/09 02:47:13;;;;;;;23.30;15.70;;;;;;;6.47;100.00;97738.08;107863;1265;70620;-80
2022/10/09 02:49:43;;;;;;;17.80;14.70;;;;;;;6.42;100.00;97737.10;107890;1266;69119;-79
2022/10/09 02:52:13;;;;;;;23.20;16.50;;;;;;;6.37;100.00;97735.97;107875;1263;68347;-79
2022/10/09 02:54:43;;;;;;;18.30;14.60;;;;;;;6.32;100.00;97738.48;107850;1266;58962;-78
2022/10/09 02:57:12;;;;;;;19.20;15.20;;;;;;;6.27;100.00;97731.65;107891;1265;58934;-79
2022/10/09 02:59:42;;;;;;;;;;;;;;;6.23;100.00;97729.43;107906;1263;70652;-79
2022/10/09 03:02:13;;;;;;;15.80;12.60;;;;;;;6.19;100.00;97729.10;108028;1265;69138;-79
2022/10/09 03:04:45;;;;;;;17.90;15.00;;;;;;;6.16;100.00;97728.73;107968;1265;68444;-75
2022/10/09 03:07:15;;;;;;;19.20;13.80;;;;;;;6.14;100.00;97731.75;107888;1264;58939;-79
2022/10/09 03:09:45;;;;;;;16.40;13.60;;;;;;;6.13;100.00;97733.71;107862;1263;58918;-79
2022/10/09 03:12:20;;;;;;;13.90;10.20;;;;;;;6.12;100.00;97733.95;107830;1267;69779;-79
2022/10/09 03:14:50;;;;;;;21.10;16.10;;;;;;;6.13;100.00;97728.86;107829;1267;69061;-79
2022/10/09 03:17:20;;;;;;;21.30;16.80;;;;;;;6.15;100.00;97726.52;107954;1266;69131;-79
2022/10/09 03:19:50;;;;;;;22.70;18.00;;;;;;;6.17;100.00;97728.54;107863;1266;59117;-80
2022/10/09 03:22:19;;;;;;;21.60;17.10;;;;;;;6.19;100.00;97730.98;107945;1266;59309;-79
2022/10/09 03:24:49;;;;;;;19.10;14.80;;;;;;;6.21;100.00;97730.57;107860;1267;69825;-79
2022/10/09 03:27:18;;;;;;;20.30;15.40;;;;;;;6.23;100.00;97732.71;107943;1263;68269;-80
2022/10/09 03:29:48;;;;;;;19.80;15.50;;;;;;;6.23;100.00;97737.36;107842;1262;69070;-79
2022/10/09 03:32:17;;;;;;;21.30;14.80;;;;;;;6.26;100.00;97740.70;108569;1263;58887;-79
2022/10/09 03:34:47;;;;;;;23.40;16.20;;;;;;;6.29;100.00;97744.16;107849;1267;58917;-79
2022/10/09 03:37:17;;;;;;;18.30;13.70;;;;;;;6.32;100.00;97745.38;107999;1259;69673;-79
2022/10/09 03:39:46;;;;;;;14.50;11.00;;;;;;;6.34;100.00;97747.73;108107;1262;69126;-78
2022/10/09 03:42:16;;;;;;;10.30;8.20;;;;;;;6.36;100.00;97754.19;108117;1263;69248;-79
2022/10/09 03:44:46;;;;;;;12.00;8.70;;;;;;;6.39;100.00;97754.04;108026;1267;58929;-78
2022/10/09 03:47:15;;;;;;;27.30;14.60;;;;;;;6.42;100.00;97757.38;107814;1268;58897;-79
2022/10/09 03:49:44;;;;;;;21.40;13.00;;;;;;;6.44;100.00;97755.00;107766;1259;70448;-79
2022/10/09 03:52:13;;;;;;;21.90;14.60;;;;;;;6.46;100.00;97758.70;107905;1263;69107;-78
2022/10/09 03:54:42;;;;;;;22.60;13.90;;;;;;;6.49;100.00;97752.83;107803;1267;69340;-79
2022/10/09 03:57:11;;;;;;;18.00;13.80;;;;;;;6.52;100.00;97757.17;107847;1263;58977;-79
2022/10/09 03:59:41;;;;;;;26.70;16.70;;;;;;;6.57;100.00;97760.77;107880;1267;58982;-79
2022/10/09 04:02:10;;;;;;;23.30;15.30;;;;;;;6.60;100.00;97766.13;108011;1262;69833;-79
2022/10/09 04:04:39;;;;;;;22.40;15.00;;;;;;;6.63;100.00;97769.80;107944;1262;68478;-79
2022/10/09 04:07:07;;;;;;;24.80;16.20;;;;;;;6.65;100.00;97768.84;107877;1253;69160;-79
2022/10/09 04:09:36;;;;;;;28.90;16.20;;;;;;;6.68;100.00;97769.35;107873;1263;58928;-80
2022/10/09 04:12:06;;;;;;;19.70;13.70;;;;;;;6.72;100.00;97770.22;107888;1267;58920;-75
2022/10/09 04:14:36;;;;;;;21.30;14.10;;;;;;;6.73;100.00;97771.73;107872;1263;70408;-80
2022/10/09 04:17:05;;;;;;;21.80;14.30;;;;;;;6.70;100.00;97775.70;107900;1266;69219;-80
2022/10/09 04:19:34;;;;;;;27.40;17.40;;;;;;;6.69;100.00;97782.86;107986;1266;69129;-80
2022/10/09 04:22:03;;;;;;;57.70;20.70;;;;;;;6.62;100.00;97783.50;107996;1260;58906;-80
2022/10/09 04:24:31;;;;;;;34.90;18.20;;;;;;;6.56;100.00;97785.40;107934;1263;58932;-80
2022/10/09 04:27:00;;;;;;;27.70;17.20;;;;;;;6.51;100.00;97782.00;107876;1257;69777;-79
2022/10/09 04:29:29;;;;;;;21.70;15.50;;;;;;;6.49;100.00;97784.00;108016;1263;69065;-77
2022/10/09 04:31:58;;;;;;;28.60;17.70;;;;;;;6.49;100.00;97788.20;107884;1267;69898;-80
2022/10/09 04:34:27;;;;;;;21.40;15.20;;;;;;;6.49;100.00;97787.68;107952;1267;58863;-80
2022/10/09 04:36:56;;;;;;;21.40;15.10;;;;;;;6.49;100.00;97793.02;108142;1267;59020;-80
2022/10/09 04:39:26;;;;;;;25.40;16.80;;;;;;;6.50;100.00;97794.20;109074;1262;69783;-81
2022/10/09 04:41:55;;;;;;;18.80;13.30;;;;;;;6.53;100.00;97793.88;108573;1262;69207;-80
2022/10/09 04:44:24;;;;;;;23.10;14.60;;;;;;;6.58;100.00;97794.63;109196;1261;69248;-81
2022/10/09 04:46:53;;;;;;;31.00;18.20;;;;;;;6.64;100.00;97795.21;108870;1265;58864;-80
2022/10/09 04:49:21;;;;;;;20.50;15.40;;;;;;;6.69;100.00;97794.10;108637;1263;58332;-81
2022/10/09 04:51:50;;;;;;;21.70;16.50;;;;;;;6.75;100.00;97796.73;107962;1267;71286;-80
2022/10/09 04:54:18;;;;;;;32.80;21.90;;;;;;;6.81;100.00;97798.16;108089;1266;68788;-80
2022/10/09 04:56:47;;;;;;;35.10;21.60;;;;;;;6.88;100.00;97801.11;107994;1267;68715;-80
2022/10/09 04:59:16;;;;;;;58.90;32.40;;;;;;;6.94;100.00;97799.89;107942;1266;58891;-79
2022/10/09 05:01:45;;;;;;;42.90;25.10;;;;;;;7.00;100.00;97798.89;107653;1267;58875;-79
2022/10/09 05:04:14;;;;;;;28.20;19.50;;;;;;;7.07;100.00;97801.10;107935;1266;69659;-80
2022/10/09 05:06:42;;;;;;;24.00;18.70;;;;;;;7.14;100.00;97802.66;107938;1263;69903;-80
2022/10/09 05:09:11;;;;;;;25.90;19.40;;;;;;;7.21;100.00;97808.02;108156;1263;69313;-80
2022/10/09 05:11:39;;;;;;;29.90;23.50;;;;;;;7.28;100.00;97808.70;107812;1262;58943;-79
2022/10/09 05:14:10;;;;;;;25.00;19.80;;;;;;;7.32;100.00;97810.52;107993;1266;59037;-78
2022/10/09 05:16:39;;;;;;;25.80;19.70;;;;;;;7.40;100.00;97814.30;108031;1268;71065;-80
2022/10/09 05:19:28;;;;;;;20.10;14.70;;;;;;;7.49;100.00;97817.30;108076;1266;68806;-80
2022/10/09 05:21:59;;;;;;;24.70;17.10;;;;;;;7.55;100.00;97822.65;107955;1260;68648;-80
2022/10/09 05:24:28;;;;;;;22.30;15.50;;;;;;;7.63;100.00;97824.84;107978;1259;58889;-80
2022/10/09 05:26:57;;;;;;;22.10;16.10;;;;;;;7.68;100.00;97831.52;108106;1266;58967;-80
2022/10/09 05:29:25;;;;;;;25.50;18.70;;;;;;;7.72;100.00;97831.14;108015;1266;69725;-80
2022/10/09 05:31:54;;;;;;;19.30;14.30;;;;;;;7.75;100.00;97832.16;107831;1266;67465;-79
2022/10/09 05:34:23;;;;;;;23.50;17.10;;;;;;;7.78;100.00;97831.14;108154;1262;68677;-80
2022/10/09 05:36:51;;;;;;;23.00;16.20;;;;;;;7.81;100.00;97834.96;108050;1266;58861;-80
2022/10/09 05:39:20;;;;;;;23.50;15.70;;;;;;;7.83;100.00;97839.02;108224;1267;58954;-80
2022/10/09 05:41:48;;;;;;;17.60;13.20;;;;;;;7.82;100.00;97838.74;107986;1263;70601;-79
2022/10/09 05:44:17;;;;;;;19.00;12.80;;;;;;;7.79;100.00;97844.10;108163;1257;69207;-80
2022/10/09 05:46:45;;;;;;;27.40;18.90;;;;;;;7.79;100.00;97847.58;109131;1259;69247;-80
2022/10/09 05:49:14;;;;;;;23.00;17.60;;;;;;;7.83;100.00;97846.98;107977;1262;58889;-79
2022/10/09 05:51:43;;;;;;;19.50;15.30;;;;;;;7.90;100.00;97853.55;107535;1263;576577;-76
2022/10/09 05:54:16;;;;;;;30.20;19.40;;;;;;;7.95;100.00;97855.37;108018;1257;69757;-80
2022/10/09 05:56:45;;;;;;;22.90;16.80;;;;;;;8.01;100.00;97861.30;107896;1263;68490;-80
2022/10/09 05:59:18;;;;;;;18.10;13.20;;;;;;;8.06;100.00;97863.93;108118;1266;69790;-79
2022/10/09 06:01:50;;;;;;;15.70;11.90;;;;;;;8.13;100.00;97865.45;108170;1262;58909;-78
2022/10/09 06:04:23;;;;;;;21.30;15.70;;;;;;;8.17;100.00;97871.85;107953;1266;58913;-79
2022/10/09 06:06:51;;;;;;;25.10;17.70;;;;;;;8.26;100.00;97869.61;107922;1262;71213;-80
2022/10/09 06:09:24;;;;;;;19.80;15.30;;;;;;;8.38;100.00;97869.66;108142;1263;69246;-79
2022/10/09 06:11:53;;;;;;;15.80;12.50;;;;;;;8.49;100.00;97874.61;108116;1266;69188;-80
2022/10/09 06:14:23;;;;;;;19.50;16.00;;;;;;;8.57;100.00;97878.65;107967;1266;59414;-80
2022/10/09 06:16:52;;;;;;;18.50;14.10;;;;;;;8.63;100.00;97879.48;107870;1263;59207;-80
2022/10/09 06:19:21;;;;;;;39.10;18.90;;;;;;;8.67;100.00;97879.80;108002;1264;71506;-79
2022/10/09 06:21:50;;;;;;;17.70;14.20;;;;;;;8.70;100.00;97881.02;108053;1263;69842;-80
2022/10/09 06:24:24;;;;;;;21.30;14.90;;;;;;;8.74;100.00;97876.27;107942;1267;69244;-80
2022/10/09 06:26:57;;;;;;;19.80;14.10;;;;;;;8.85;99.92;97876.31;108060;1263;58968;-80
2022/10/09 06:29:26;;;;;;;23.30;15.40;;;;;;;8.99;99.43;97873.93;107690;1267;58966;-80
2022/10/09 06:31:55;;;;;;;19.90;16.50;;;;;;;9.11;98.94;97867.15;107806;1265;70548;-80
2022/10/09 06:34:23;;;;;;;38.40;16.10;;;;;;;9.24;97.83;97870.90;107946;1262;67754;-75
2022/10/09 06:36:52;;;;;;;19.30;14.00;;;;;;;9.31;97.23;97870.65;107947;1266;68494;-80
2022/10/09 06:39:21;;;;;;;13.70;11.30;;;;;;;9.43;97.98;97874.77;107909;1263;58959;-80
2022/10/09 06:41:50;;;;;;;12.40;9.50;;;;;;;9.69;97.90;97874.22;107894;1262;58864;-80
2022/10/09 06:44:45;;;;;;;18.30;14.20;;;;;;;9.88;96.19;97877.92;108023;1267;70623;-81
2022/10/09 06:47:15;;;;;;;21.80;14.50;;;;;;;9.95;95.08;97878.73;108083;1260;68369;-79
2022/10/09 06:49:43;;;;;;;;;;;;;;;9.97;94.20;97879.80;108125;1267;69937;-82
2022/10/09 06:52:13;;;;;;;16.60;12.70;;;;;;;9.99;94.53;97883.01;108549;1266;58929;-80
2022/10/09 06:54:42;;;;;;;14.60;10.60;;;;;;;10.14;94.93;97888.29;108168;1266;58962;-82
2022/10/09 06:57:10;;;;;;;15.50;13.00;;;;;;;10.27;94.46;97888.23;108010;1267;70086;-81
2022/10/09 06:59:39;;;;;;;15.90;12.80;;;;;;;10.41;93.77;97891.00;108166;1267;68459;-81
2022/10/09 07:02:08;;;;;;;12.90;10.20;;;;;;;10.56;93.31;97894.17;107865;1266;69470;-81
2022/10/09 07:04:36;;;;;;;16.90;12.10;;;;;;;10.59;92.15;97893.13;107981;1263;58860;-81
2022/10/09 07:07:05;;;;;;;13.60;10.20;;;;;;;10.59;92.23;97890.47;107910;1266;58923;-79
2022/10/09 07:09:33;;;;;;;18.40;12.90;;;;;;;10.58;92.08;97893.20;107917;1262;70803;-80
2022/10/09 07:12:02;;;;;;;13.30;11.70;;;;;;;10.48;92.12;97894.20;107973;1263;69983;-80
2022/10/09 07:14:30;;;;;;;24.50;15.30;;;;;;;10.52;93.07;97899.19;107914;1266;68527;-79
2022/10/09 07:16:59;;;;;;;16.20;12.10;;;;;;;10.53;92.73;97904.64;108503;1255;59023;-80
2022/10/09 07:19:27;;;;;;;16.00;13.80;;;;;;;10.51;93.17;97902.88;108149;1263;58819;-79
2022/10/09 07:21:56;;;;;;;17.40;14.00;;;;;;;10.49;93.70;97901.59;107971;1266;71156;-80
2022/10/09 07:24:24;;;;;;;15.00;12.80;;;;;;;10.49;93.38;97905.45;107920;1267;69410;-78
2022/10/09 07:26:56;;;;;;;9.90;8.70;;;;;;;10.56;93.30;97907.27;108016;1267;68429;-76
2022/10/09 07:29:24;;;;;;;13.70;11.30;;;;;;;10.57;93.86;97913.30;108137;1266;58959;-80
2022/10/09 07:31:53;;;;;;;13.70;10.70;;;;;;;10.63;93.74;97911.14;107794;1267;59320;-79
2022/10/09 07:34:22;;;;;;;13.60;10.80;;;;;;;10.73;93.90;97912.58;107966;1266;70581;-81
2022/10/09 07:36:50;;;;;;;12.80;11.00;;;;;;;10.95;93.83;97916.73;107958;1267;69272;-81
2022/10/09 07:39:19;;;;;;;15.10;12.50;;;;;;;11.17;92.90;97920.28;108002;1266;69960;-80
2022/10/09 07:41:51;;;;;;;14.60;12.00;;;;;;;11.29;91.52;97918.10;108221;1263;58947;-79
2022/10/09 07:44:19;;;;;;;15.90;12.80;;;;;;;11.27;89.91;97921.38;107952;1266;58949;-75
2022/10/09 07:46:50;;;;;;;15.70;12.10;;;;;;;11.37;90.40;97919.15;108061;1266;70336;-81
2022/10/09 07:49:19;;;;;;;17.80;14.40;;;;;;;11.50;90.38;97924.04;108128;1266;68443;-79
2022/10/09 07:51:47;;;;;;;12.70;9.90;;;;;;;11.54;90.73;97933.48;107956;1265;68600;-80
2022/10/09 07:54:16;;;;;;;13.70;10.10;;;;;;;11.66;89.52;97936.53;107824;1263;58917;-80
2022/10/09 07:56:44;;;;;;;18.40;14.40;;;;;;;11.70;89.38;97932.61;107836;1264;58981;-79
2022/10/09 07:59:15;;;;;;;19.90;14.20;;;;;;;11.71;89.46;97926.36;108005;1263;70698;-80
2022/10/09 08:01:43;;;;;;;16.20;12.80;;;;;;;11.76;88.73;97929.02;107988;1267;68998;-80
2022/10/09 08:04:12;;;;;;;19.60;15.70;;;;;;;11.78;88.77;97929.61;107948;1266;69301;-80
2022/10/09 08:06:40;;;;;;;16.80;13.80;;;;;;;11.74;88.38;97928.33;107830;1266;58999;-80
2022/10/09 08:09:09;;;;;;;18.00;14.90;;;;;;;11.89;88.32;97930.55;107874;1266;58901;-80
2022/10/09 08:11:39;;;;;;;18.50;14.90;;;;;;;12.21;86.82;97929.39;107996;1257;70027;-80
2022/10/09 08:14:11;;;;;;;19.80;16.30;;;;;;;12.63;86.75;97928.23;108011;1266;69871;-80
2022/10/09 08:16:47;;;;;;;18.30;14.70;;;;;;;12.95;85.76;97925.23;107872;1266;70019;-80
2022/10/09 08:19:15;;;;;;;17.20;14.00;;;;;;;13.14;84.31;97920.46;108003;1262;58962;-80
2022/10/09 08:21:44;;;;;;;18.50;16.10;;;;;;;13.25;83.58;97916.68;108119;1253;58866;-81
2022/10/09 08:24:13;;;;;;;18.80;15.80;;;;;;;13.28;81.68;97913.88;108388;1266;70398;-80
2022/10/09 08:26:43;;;;;;;20.30;16.80;;;;;;;13.37;81.34;97910.52;108048;1265;69832;-81
2022/10/09 08:29:14;;;;;;;15.00;12.80;;;;;;;13.56;81.38;97911.39;108080;1266;69955;-80
2022/10/09 08:31:43;;;;;;;17.50;13.10;;;;;;;13.72;80.58;97906.28;107813;1266;58961;-80
2022/10/09 08:34:11;;;;;;;16.90;13.80;;;;;;;13.90;80.91;97897.70;107812;1263;58931;-81
2022/10/09 08:36:40;;;;;;;19.20;15.30;;;;;;;14.00;80.28;97893.92;107772;1266;71210;-81
2022/10/09 08:39:09;;;;;;;18.20;14.70;;;;;;;14.15;79.77;97894.84;107814;1262;69561;-81
2022/10/09 08:41:45;;;;;;;18.80;16.00;;;;;;;14.56;77.36;97896.80;107897;1269;67550;-80
2022/10/09 08:44:38;;;;;;;24.50;20.90;;;;;;;15.19;74.73;97901.46;107895;1265;58960;-80
2022/10/09 08:47:09;;;;;;;23.50;20.00;;;;;;;15.96;72.23;97903.46;107802;1267;58975;-80
2022/10/09 08:49:46;;;;;;;23.00;20.30;;;;;;;16.66;70.15;97908.58;107891;1267;69860;-81
2022/10/09 08:52:41;;;;;;;21.70;19.30;;;;;;;17.02;65.60;97909.75;107864;1265;69036;-80
2022/10/09 08:55:23;;;;;;;19.80;16.10;;;;;;;17.28;63.77;97911.64;107855;1265;69225;-79
2022/10/09 08:57:55;;;;;;;23.40;20.90;;;;;;;17.68;63.05;97903.98;107721;1265;58895;-79
2022/10/09 09:00:28;;;;;;;23.20;20.80;;;;;;;17.91;61.80;97903.23;107849;1268;58849;-79
2022/10/09 09:03:06;;;;;;;23.90;19.20;;;;;;;17.56;63.04;97909.63;107947;1265;70097;-78
2022/10/09 09:05:37;;;;;;;21.20;18.90;;;;;;;17.35;63.38;97913.42;107874;1266;69469;-79
2022/10/09 09:08:23;;;;;;;21.30;18.90;;;;;;;18.04;62.35;97906.38;107865;1267;68907;-80
2022/10/09 09:11:15;;;;;;;19.50;16.50;;;;;;;18.17;60.56;97907.76;107968;1262;58924;-79
2022/10/09 09:14:18;;;;;;;20.30;18.00;;;;;;;19.33;60.43;97903.25;107856;1266;58980;-79
2022/10/09 09:17:03;;;;;;;21.30;19.20;;;;;;;20.61;57.24;97909.13;107779;1267;70558;-78
2022/10/09 09:19:57;;;;;;;21.50;19.30;;;;;;;20.80;53.02;97911.11;107826;1267;69904;-79
2022/10/09 09:22:27;;;;;;;20.20;18.20;;;;;;;21.26;53.91;97909.66;107919;1267;69072;-79
2022/10/09 09:24:58;;;;;;;19.20;17.20;;;;;;;21.56;51.52;97905.32;107895;1266;58956;-78
2022/10/09 09:27:33;;;;;;;16.90;15.20;;;;;;;21.60;52.46;97907.02;108291;1266;58822;-78
2022/10/09 09:30:14;;;;;;;22.10;19.80;;;;;;;22.26;51.34;97902.31;108672;1266;71005;-79
2022/10/09 09:32:59;;;;;;;19.30;17.30;;;;;;;22.75;49.93;97903.05;107958;1266;68912;-79
2022/10/09 09:35:35;;;;;;;15.10;13.70;;;;;;;23.46;48.94;97906.02;108133;1266;69226;-77
2022/10/09 09:38:03;;;;;;;14.30;12.80;;;;;;;23.85;46.58;97906.09;108226;1257;58922;-77
2022/10/09 09:40:33;;;;;;;15.10;13.60;;;;;;;24.14;45.20;97904.73;107837;1266;58889;-77
2022/10/09 09:43:15;;;;;;;16.20;14.60;;;;;;;24.20;44.70;97903.73;108159;1262;70615;-77
2022/10/09 09:45:45;;;;;;;15.10;13.50;;;;;;;23.27;45.01;97903.48;107923;1266;69261;-78
2022/10/09 09:48:39;;;;;;;15.70;14.20;;;;;;;24.23;45.51;97898.92;107969;1265;69271;-78
2022/10/09 09:51:28;;;;;;;18.40;16.60;;;;;;;24.66;42.93;97894.59;107961;1264;58969;-77
2022/10/09 09:54:05;;;;;;;15.10;13.70;;;;;;;24.27;43.18;97887.46;107993;1263;58905;-76
2022/10/09 09:56:38;;;;;;;15.00;13.60;;;;;;;24.64;42.88;97885.40;108009;1266;71075;-76
2022/10/09 09:59:35;;;;;;;11.70;10.60;;;;;;;24.06;42.81;97889.77;108102;1263;69167;-77
2022/10/09 10:02:20;;;;;;;12.40;11.10;;;;;;;24.31;43.51;97891.55;108001;1266;69277;-76
2022/10/09 10:05:08;;;;;;;11.60;10.50;;;;;;;24.34;43.14;97884.19;107943;1259;58932;-77
2022/10/09 10:07:37;;;;;;;12.00;10.10;;;;;;;24.56;42.64;97882.88;108029;1263;58896;-76
2022/10/09 10:10:14;;;;;;;7.20;6.50;;;;;;;24.96;42.33;97887.39;107971;1267;71119;-77
2022/10/09 10:12:56;;;;;;;6.40;5.80;;;;;;;25.36;39.76;97898.67;107877;1263;69227;-77
2022/10/09 10:15:26;;;;;;;5.90;5.30;;;;;;;25.24;40.44;97887.61;107944;1267;70002;-77
2022/10/09 10:18:05;;;;;;;6.40;5.90;;;;;;;25.44;40.42;97890.70;107812;1267;59295;-78
2022/10/09 10:20:43;;;;;;;;;;;;;;;24.64;42.04;97891.28;107652;1263;58954;-77
2022/10/09 10:23:22;;;;;;;7.70;7.00;;;;;;;24.18;42.58;97890.14;107925;1262;70541;-78
2022/10/09 10:25:56;;;;;;;8.20;7.40;;;;;;;23.71;43.00;97891.72;107925;1267;68257;-78
2022/10/09 10:28:35;;;;;;;10.10;9.10;;;;;;;23.73;44.08;97892.70;107848;1263;69257;-77
2022/10/09 10:31:10;;;;;;;8.30;7.50;;;;;;;23.90;44.09;97897.29;107817;1263;58920;-77
2022/10/09 10:33:42;;;;;;;11.50;10.40;;;;;;;23.18;45.08;97899.95;108072;1269;58938;-76
2022/10/09 10:36:11;;;;;;;12.10;10.90;;;;;;;22.68;46.50;97899.00;108157;1263;70596;-77
2022/10/09 10:38:45;;;;;;;12.10;10.90;;;;;;;21.99;47.93;97896.64;108160;1266;70325;-77
2022/10/09 10:41:29;;;;;;;12.50;11.10;;;;;;;21.68;49.52;97901.52;108093;1266;68807;-78
2022/10/09 10:44:06;;;;;;;12.70;11.40;;;;;;;21.14;50.59;97904.96;107976;1266;58923;-77
2022/10/09 10:47:12;;;;;;;11.50;10.40;;;;;;;20.76;51.62;97902.13;108104;1257;58913;-75
2022/10/09 10:49:40;;;;;;;11.80;10.80;;;;;;;20.35;52.16;97895.66;107843;1267;70581;-75
2022/10/09 10:52:42;;;;;;;9.90;9.00;;;;;;;19.77;54.02;97894.96;107852;1262;69907;-76
2022/10/09 10:55:18;;;;;;;8.20;7.40;;;;;;;19.95;53.81;97893.40;107937;1266;69204;-77
2022/10/09 10:58:04;;;;;;;10.40;9.40;;;;;;;20.25;52.89;97894.56;108071;1267;58893;-78
2022/10/09 11:00:37;;;;;;;10.10;9.10;;;;;;;19.99;53.28;97891.77;107803;1266;58893;-75
2022/10/09 11:03:24;;;;;;;11.80;10.50;;;;;;;19.91;53.41;97889.54;107839;1266;69784;-76
2022/10/09 11:06:20;;;;;;;13.60;11.70;;;;;;;20.61;52.60;97888.05;107845;1262;69252;-77
2022/10/09 11:09:04;;;;;;;12.50;11.30;;;;;;;21.25;50.32;97885.86;107945;1266;69484;-76
2022/10/09 11:11:36;;;;;;;12.30;11.10;;;;;;;22.35;49.15;97875.71;108014;1267;58972;-76
2022/10/09 11:14:51;;;;;;;8.90;7.90;;;;;;;23.03;46.30;97878.16;108027;1263;58915;-77
2022/10/09 11:17:47;;;;;;;11.40;10.30;;;;;;;23.74;45.21;97871.81;107694;1257;70885;-77
2022/10/09 11:20:45;;;;;;;8.40;7.60;;;;;;;23.85;44.32;97871.42;107778;1260;68707;-78
2022/10/09 11:23:43;;;;;;;10.00;9.00;;;;;;;24.47;42.99;97869.86;107723;1266;68369;-77
2022/10/09 11:26:40;;;;;;;12.20;11.10;;;;;;;25.21;41.58;97871.48;107870;1266;58923;-77
2022/10/09 11:29:53;;;;;;;9.30;8.50;;;;;;;24.56;42.13;97869.90;107897;1267;58896;-76
2022/10/09 11:32:26;;;;;;;8.30;7.40;;;;;;;24.76;41.03;97866.34;107967;1266;71349;-77
2022/10/09 11:35:07;;;;;;;8.60;7.40;;;;;;;25.14;41.97;97865.96;107862;1263;69832;-79
2022/10/09 11:37:38;;;;;;;8.90;8.00;;;;;;;25.68;39.96;97859.17;108189;1257;69361;-77
2022/10/09 11:40:21;;;;;;;6.90;6.20;;;;;;;26.14;39.82;97859.67;108055;1267;59251;-78
2022/10/09 11:43:24;;;;;;;7.10;6.30;;;;;;;27.23;38.26;97855.20;108087;1266;58899;-76